createdAt,value
2022-07-28T00:00:46.728Z,11.9
2022-07-28T00:10:46.738Z,11.9
2022-07-28T00:20:46.776Z,11.8
2022-07-28T00:30:46.793Z,11.8
2022-07-28T00:40:47.030Z,11.8
2022-07-28T00:50:46.632Z,11.9
2022-07-28T01:00:46.847Z,12.1
2022-07-28T01:10:46.878Z,12.2
2022-07-28T01:20:46.905Z,12.1
2022-07-28T01:30:46.933Z,11.9
2022-07-28T01:40:49.936Z,11.7
2022-07-28T01:50:46.942Z,11.5
2022-07-28T02:00:46.964Z,11.4
2022-07-28T02:10:46.980Z,11.2
2022-07-28T02:20:46.996Z,10.9
2022-07-28T02:30:47.204Z,10.9
2022-07-28T02:50:47.064Z,10.7
2022-07-28T03:00:47.071Z,10.5
2022-07-28T03:10:47.081Z,10.4
2022-07-28T03:20:47.114Z,10.3
2022-07-28T03:40:47.257Z,10.2
2022-07-28T03:50:47.157Z,10.1
2022-07-28T04:00:47.248Z,10.1
2022-07-28T04:10:47.193Z,10.4
2022-07-28T04:30:47.390Z,11.8
2022-07-28T04:40:47.249Z,12.7
2022-07-28T04:50:47.294Z,13.4
2022-07-28T05:00:50.010Z,12.8
2022-07-28T05:10:47.316Z,12.4
2022-07-28T05:20:47.325Z,12.5
2022-07-28T05:40:47.205Z,14
2022-07-28T05:50:47.389Z,13.7
2022-07-28T06:00:47.465Z,15
2022-07-28T06:10:47.445Z,16
2022-07-28T06:20:47.446Z,17.1
2022-07-28T06:30:47.467Z,18.2
2022-07-28T06:40:47.461Z,19.4
2022-07-28T07:10:47.525Z,20.4
2022-07-28T07:20:47.349Z,19.9
2022-07-28T07:30:47.562Z,20.2
2022-07-28T07:40:47.572Z,20.4
2022-07-28T08:00:47.587Z,21.2
2022-07-28T08:10:47.594Z,22.3
2022-07-28T08:20:47.621Z,22.7
2022-07-28T08:30:47.624Z,23.5
2022-07-28T08:40:47.641Z,23.8
2022-07-28T08:50:47.660Z,24.4
2022-07-28T09:00:47.690Z,24.1
2022-07-28T09:10:47.690Z,24.6
2022-07-28T09:20:47.737Z,24.6
2022-07-28T09:30:53.952Z,25
2022-07-28T09:40:47.742Z,25.8
2022-07-28T09:50:47.740Z,25.5
2022-07-28T10:00:47.788Z,25.8
2022-07-28T10:10:47.778Z,26
2022-07-28T10:20:47.785Z,26.3
2022-07-28T10:30:48.005Z,25.9
2022-07-28T10:40:47.840Z,25.8
2022-07-28T10:50:47.856Z,27
2022-07-28T11:10:47.862Z,27
2022-07-28T11:20:47.882Z,26.3
2022-07-28T11:30:47.971Z,26.7
2022-07-28T11:40:47.945Z,27.3
2022-07-28T11:50:47.952Z,26.4
2022-07-28T12:00:47.959Z,27.6
2022-07-28T12:10:56.025Z,27.5
2022-07-28T12:20:48.370Z,28.5
2022-07-28T12:30:47.809Z,27.8
2022-07-28T12:40:47.821Z,26.8
2022-07-28T12:50:48.013Z,26.6
2022-07-28T13:00:48.072Z,26.3
2022-07-28T13:10:48.040Z,27
2022-07-28T13:20:48.051Z,27.2
2022-07-28T13:30:48.078Z,26.3
2022-07-28T13:40:48.084Z,26.2
2022-07-28T13:50:48.117Z,26.1
2022-07-28T14:00:48.173Z,26.3
2022-07-28T14:10:48.274Z,26.4
2022-07-28T14:20:48.175Z,26.2
2022-07-28T14:30:48.152Z,27
2022-07-28T14:40:48.150Z,26.2
2022-07-28T14:50:48.202Z,26.3
2022-07-28T15:00:48.201Z,25.8
2022-07-28T15:10:49.211Z,25.8
2022-07-28T15:20:48.230Z,25.7
2022-07-28T15:30:49.485Z,25.8
2022-07-28T15:40:49.915Z,25.7
2022-07-28T15:50:48.273Z,25.4
2022-07-28T16:00:48.093Z,25.5
2022-07-28T16:10:48.309Z,25.3
2022-07-28T16:20:48.295Z,25
2022-07-28T16:30:48.428Z,24.9
2022-07-28T16:40:48.333Z,24.7
2022-07-28T16:50:48.369Z,24.6
2022-07-28T17:00:48.365Z,24.4
2022-07-28T17:10:48.399Z,24.2
2022-07-28T17:20:48.416Z,24
2022-07-28T17:30:48.415Z,23.9
2022-07-28T17:40:48.430Z,23.6
2022-07-28T17:50:48.433Z,23.3
2022-07-28T18:00:48.444Z,23
2022-07-28T18:10:48.467Z,22.7
2022-07-28T18:20:48.502Z,22.6
2022-07-28T18:30:48.558Z,22.4
2022-07-28T18:40:48.333Z,22.2
2022-07-28T18:50:48.517Z,22.1
2022-07-28T19:00:48.543Z,22
2022-07-28T19:10:48.579Z,21.8
2022-07-28T19:20:48.565Z,21.7
2022-07-28T19:30:48.660Z,21.5
2022-07-28T19:40:48.599Z,21.4
2022-07-28T19:50:50.381Z,21.2
2022-07-28T20:00:48.626Z,21
2022-07-28T20:10:48.637Z,20.8
2022-07-28T20:20:48.652Z,20.5
2022-07-28T20:30:48.707Z,20.4
2022-07-28T20:40:48.692Z,20.1
2022-07-28T20:50:48.707Z,19.9
2022-07-28T21:00:48.800Z,19.7
2022-07-28T21:10:48.739Z,19.7
2022-07-28T21:20:48.754Z,19.3
2022-07-28T21:30:48.775Z,19.3
2022-07-28T21:40:48.766Z,19.2
2022-07-28T22:00:48.922Z,18.7
2022-07-28T22:10:48.827Z,18.5
2022-07-28T22:20:48.849Z,18.4
2022-07-28T22:30:48.873Z,18.3
2022-07-28T22:40:48.959Z,18.1
2022-07-28T22:50:48.732Z,18.1
2022-07-28T23:00:49.241Z,18
2022-07-28T23:10:49.507Z,18
2022-07-28T23:20:48.943Z,18
2022-07-28T23:30:51.825Z,18
2022-07-28T23:40:48.969Z,18
2022-07-28T23:50:48.984Z,17.9
